Time;durP1;ratioP1;P1;durP2;ratioP2;P2;SDS_P1;SDS_P2;PMS_P1;PMS_P2;Temp;Humidity;BMP_temperature;BMP_pressure;BME280_temperature;BME280_humidity;BME280_pressure;Samples;Min_cycle;Max_cycle;Signal;HPM_P1;HPM_P2
2023/04/22 00:02:06;;;;;;;1.70;0.70;;;9.90;99.90;;;;;;4989534;28;20621;-74
2023/04/22 00:04:32;;;;;;;2.23;0.90;;;10.00;99.90;;;;;;4994955;28;20184;-74
2023/04/22 00:06:58;;;;;;;1.73;0.87;;;9.90;99.90;;;;;;4987692;28;20183;-75
2023/04/22 00:09:24;;;;;;;2.03;1.00;;;9.90;99.90;;;;;;4994753;28;20433;-75
2023/04/22 00:11:50;;;;;;;2.80;1.47;;;9.90;99.90;;;;;;5008740;28;20639;-74
2023/04/22 00:14:16;;;;;;;2.43;0.80;;;9.90;99.90;;;;;;5014474;28;20257;-74
2023/04/22 00:16:42;;;;;;;5.70;1.00;;;9.80;99.90;;;;;;4999655;28;20419;-74
2023/04/22 00:19:07;;;;;;;2.07;0.80;;;9.80;99.90;;;;;;4989979;28;20624;-75
2023/04/22 00:21:33;;;;;;;1.70;0.80;;;9.80;99.90;;;;;;5013485;28;20183;-75
2023/04/22 00:23:59;;;;;;;2.47;1.13;;;9.80;99.90;;;;;;4994759;28;20226;-75
2023/04/22 00:26:24;;;;;;;3.20;1.20;;;9.80;99.90;;;;;;4995716;28;20204;-75
2023/04/22 00:28:50;;;;;;;2.40;0.90;;;9.70;99.90;;;;;;5007070;28;20210;-75
2023/04/22 00:31:15;;;;;;;2.37;1.10;;;9.70;99.90;;;;;;4994282;28;20195;-75
2023/04/22 00:33:41;;;;;;;2.80;1.40;;;9.70;99.90;;;;;;4981629;28;20315;-75
2023/04/22 00:36:07;;;;;;;2.23;1.03;;;9.60;99.90;;;;;;4994896;28;20191;-75
2023/04/22 00:38:32;;;;;;;1.70;1.00;;;9.60;99.90;;;;;;5014336;28;20202;-75
2023/04/22 00:40:58;;;;;;;1.90;1.20;;;9.60;99.90;;;;;;5010718;28;20222;-76
2023/04/22 00:43:24;;;;;;;2.00;1.23;;;9.60;99.90;;;;;;5001045;28;20193;-75
2023/04/22 00:45:49;;;;;;;2.10;1.07;;;9.50;99.90;;;;;;5013816;28;20206;-76
2023/04/22 00:48:15;;;;;;;2.90;1.63;;;9.50;99.90;;;;;;4994832;28;20184;-75
2023/04/22 00:50:41;;;;;;;2.00;0.93;;;9.50;99.90;;;;;;4994271;28;20184;-75
2023/04/22 00:53:06;;;;;;;10.13;1.50;;;9.50;99.90;;;;;;4994266;28;20238;-75
2023/04/22 00:55:32;;;;;;;2.30;0.93;;;9.50;99.90;;;;;;4994396;28;20643;-75
2023/04/22 00:58:00;;;;;;;2.20;1.00;;;9.50;99.90;;;;;;4988091;28;20179;-75
2023/04/22 01:00:27;;;;;;;2.13;1.17;;;9.50;99.90;;;;;;5000296;28;20430;-75
2023/04/22 01:02:54;;;;;;;5.00;2.00;;;9.40;99.90;;;;;;4974243;28;20786;-75
2023/04/22 01:05:20;;;;;;;3.40;1.77;;;9.50;99.90;;;;;;4988241;28;20422;-75
2023/04/22 01:07:46;;;;;;;7.30;1.10;;;9.40;99.90;;;;;;4997735;28;20418;-75
2023/04/22 01:10:12;;;;;;;2.13;1.17;;;9.50;99.90;;;;;;4994550;28;20441;-75
2023/04/22 01:12:37;;;;;;;2.63;1.30;;;9.50;99.90;;;;;;5013272;28;20546;-75
2023/04/22 01:15:04;;;;;;;2.67;1.20;;;9.40;99.90;;;;;;5000513;28;20624;-75
2023/04/22 01:17:32;;;;;;;2.50;1.33;;;9.40;99.90;;;;;;5006394;28;20183;-75
2023/04/22 01:19:58;;;;;;;3.00;1.67;;;9.40;99.90;;;;;;4993069;28;20418;-75
2023/04/22 01:22:26;;;;;;;1.90;1.10;;;9.40;99.90;;;;;;4975082;28;20499;-75
2023/04/22 01:24:52;;;;;;;2.10;1.20;;;9.40;99.90;;;;;;4992984;28;20193;-75
2023/04/22 01:27:19;;;;;;;4.27;1.63;;;9.30;99.90;;;;;;5005690;28;20910;-75
2023/04/22 01:29:47;;;;;;;3.47;1.40;;;9.30;99.90;;;;;;5016545;28;20406;-76
2023/04/22 01:32:12;;;;;;;2.33;1.23;;;9.30;99.90;;;;;;5005818;28;20905;-75
2023/04/22 01:34:38;;;;;;;6.27;1.50;;;9.40;99.90;;;;;;5003307;28;20474;-75
2023/04/22 01:37:05;;;;;;;7.43;1.10;;;9.20;99.90;;;;;;5008503;28;20187;-75
2023/04/22 01:39:31;;;;;;;2.10;1.20;;;9.20;99.90;;;;;;5016798;28;20604;-75
2023/04/22 01:41:57;;;;;;;2.33;1.00;;;9.30;99.90;;;;;;4997857;28;20414;-75
2023/04/22 01:44:23;;;;;;;2.23;1.00;;;9.20;99.90;;;;;;5012689;28;20179;-76
2023/04/22 01:46:48;;;;;;;2.97;1.27;;;9.20;99.90;;;;;;5017745;28;20439;-75
2023/04/22 01:49:14;;;;;;;2.20;1.13;;;9.20;99.90;;;;;;5003150;28;20234;-75
2023/04/22 01:51:40;;;;;;;2.83;1.10;;;9.20;99.90;;;;;;5005609;28;20179;-76
2023/04/22 01:54:05;;;;;;;14.50;1.70;;;9.20;99.90;;;;;;5002722;28;20691;-75
2023/04/22 01:56:31;;;;;;;1.83;1.23;;;9.20;99.90;;;;;;5005930;28;20179;-77
2023/04/22 01:58:56;;;;;;;2.00;1.00;;;9.10;99.90;;;;;;5015686;28;20174;-75
2023/04/22 02:01:22;;;;;;;1.80;1.10;;;9.10;99.90;;;;;;4997484;28;20572;-75
2023/04/22 02:03:47;;;;;;;2.30;1.20;;;9.10;99.90;;;;;;5010667;28;20188;-76
2023/04/22 02:06:13;;;;;;;2.27;1.33;;;9.00;99.90;;;;;;4997431;28;20290;-75
2023/04/22 02:08:39;;;;;;;2.37;1.37;;;9.00;99.90;;;;;;5010744;28;20179;-75
2023/04/22 02:11:04;;;;;;;3.57;1.73;;;9.00;99.90;;;;;;5005133;28;20216;-75
2023/04/22 02:13:37;;;;;;;6.70;1.53;;;9.00;99.90;;;;;;5015568;28;20805;-75
2023/04/22 02:16:04;;;;;;;3.53;1.50;;;8.90;99.90;;;;;;4988287;28;20176;-75
2023/04/22 02:18:29;;;;;;;2.90;2.00;;;8.90;99.90;;;;;;4993186;28;20486;-75
2023/04/22 02:20:55;;;;;;;2.50;1.87;;;8.90;99.90;;;;;;4990439;28;20515;-76
2023/04/22 02:23:21;;;;;;;3.63;1.67;;;8.90;99.90;;;;;;4985478;28;20188;-75
2023/04/22 02:25:51;;;;;;;3.03;1.50;;;8.80;99.90;;;;;;5008505;28;20219;-76
2023/04/22 02:28:17;;;;;;;3.50;2.10;;;8.90;99.90;;;;;;5013099;28;20187;-76
2023/04/22 02:30:45;;;;;;;5.70;1.93;;;8.80;99.90;;;;;;5007757;28;20418;-76
2023/04/22 02:33:11;;;;;;;5.93;1.83;;;8.90;99.90;;;;;;4999697;28;20454;-75
2023/04/22 02:35:36;;;;;;;3.43;1.80;;;8.80;99.90;;;;;;5006775;28;20441;-75
2023/04/22 02:38:02;;;;;;;6.70;2.10;;;8.80;99.90;;;;;;5004603;28;20172;-76
2023/04/22 02:40:28;;;;;;;3.90;1.73;;;8.80;99.90;;;;;;4989623;28;20192;-75
2023/04/22 02:42:53;;;;;;;3.37;1.60;;;8.80;99.90;;;;;;4981981;28;20180;-75
2023/04/22 02:45:19;;;;;;;2.73;1.93;;;8.70;99.90;;;;;;4996464;28;20188;-77
2023/04/22 02:47:45;;;;;;;2.90;1.63;;;8.60;99.90;;;;;;4995430;28;20283;-75
2023/04/22 02:50:11;;;;;;;3.30;1.60;;;8.60;99.90;;;;;;4977791;28;20181;-75
2023/04/22 02:52:36;;;;;;;5.60;2.50;;;8.50;99.90;;;;;;4993144;28;20187;-75
2023/04/22 02:55:02;;;;;;;4.13;1.73;;;8.40;99.90;;;;;;4997301;28;20415;-75
2023/04/22 02:57:28;;;;;;;3.30;1.90;;;8.40;99.90;;;;;;4997042;28;21645;-76
2023/04/22 02:59:53;;;;;;;4.10;1.60;;;8.40;99.90;;;;;;4997077;28;20270;-75
2023/04/22 03:02:19;;;;;;;3.93;1.93;;;8.30;99.90;;;;;;5009814;28;20179;-75
2023/04/22 03:04:45;;;;;;;3.87;1.40;;;8.20;99.90;;;;;;4979482;28;20274;-75
2023/04/22 03:07:10;;;;;;;3.50;1.60;;;8.20;99.90;;;;;;5001195;28;20669;-75
2023/04/22 03:09:36;;;;;;;3.03;1.43;;;8.10;99.90;;;;;;4996628;28;20691;-75
2023/04/22 03:12:01;;;;;;;4.03;1.63;;;8.10;99.90;;;;;;4981221;28;20185;-75
2023/04/22 03:14:27;;;;;;;5.37;1.70;;;8.10;99.90;;;;;;4985678;28;20318;-75
2023/04/22 03:16:53;;;;;;;2.83;1.63;;;8.10;99.90;;;;;;5009447;28;20346;-74
2023/04/22 03:19:19;;;;;;;3.30;1.83;;;8.10;99.90;;;;;;4988438;28;20184;-75
2023/04/22 03:21:44;;;;;;;7.03;1.87;;;8.00;99.90;;;;;;4990536;28;20207;-77
2023/04/22 03:24:10;;;;;;;3.57;1.80;;;8.00;99.90;;;;;;4968832;28;20290;-75
2023/04/22 03:26:35;;;;;;;3.50;1.60;;;8.00;99.90;;;;;;4984853;28;20251;-76
2023/04/22 03:29:01;;;;;;;3.67;1.47;;;8.00;99.90;;;;;;4990083;28;20188;-75
2023/04/22 03:31:27;;;;;;;3.80;1.80;;;8.00;99.90;;;;;;5007453;28;20195;-75
2023/04/22 03:33:52;;;;;;;3.80;1.90;;;8.00;99.90;;;;;;5013980;28;20207;-75
2023/04/22 03:36:18;;;;;;;2.63;1.43;;;8.00;99.90;;;;;;5002537;28;20190;-75
2023/04/22 03:38:43;;;;;;;1.90;0.97;;;8.00;99.90;;;;;;4995646;28;20182;-75
2023/04/22 03:41:12;;;;;;;2.70;1.43;;;8.00;99.90;;;;;;4995523;28;20183;-77
2023/04/22 03:43:37;;;;;;;3.60;1.80;;;7.90;99.90;;;;;;4995559;28;20191;-75
2023/04/22 03:46:03;;;;;;;3.50;1.83;;;7.90;99.90;;;;;;4982059;28;20771;-75
2023/04/22 03:48:33;;;;;;;3.63;1.80;;;7.90;99.90;;;;;;5003884;28;20195;-75
2023/04/22 03:50:59;;;;;;;3.80;1.97;;;7.90;99.90;;;;;;5012285;28;20187;-75
2023/04/22 03:53:25;;;;;;;2.77;1.70;;;7.80;99.90;;;;;;4985602;28;20808;-75
2023/04/22 03:55:50;;;;;;;1.93;1.30;;;7.90;99.90;;;;;;5007152;28;20187;-75
2023/04/22 03:58:16;;;;;;;3.47;1.87;;;7.80;99.90;;;;;;5005807;28;20619;-75
2023/04/22 04:00:41;;;;;;;3.17;1.93;;;7.80;99.90;;;;;;4977892;28;20180;-76
2023/04/22 04:03:07;;;;;;;4.83;2.07;;;7.80;99.90;;;;;;4995009;28;20215;-76
2023/04/22 04:05:33;;;;;;;5.47;2.00;;;7.80;99.90;;;;;;4995580;28;20191;-76
2023/04/22 04:07:58;;;;;;;6.20;1.77;;;7.70;99.90;;;;;;5004254;28;20187;-75
2023/04/22 04:10:24;;;;;;;7.53;1.77;;;7.80;99.90;;;;;;5000086;28;20195;-75
2023/04/22 04:12:50;;;;;;;4.80;1.87;;;7.70;99.90;;;;;;5003737;28;20680;-75
2023/04/22 04:15:17;;;;;;;3.07;1.37;;;7.80;99.90;;;;;;5012808;28;20193;-75
2023/04/22 04:17:43;;;;;;;2.70;1.43;;;7.80;99.90;;;;;;5004030;28;20182;-75
2023/04/22 04:20:09;;;;;;;2.50;1.70;;;7.70;99.90;;;;;;5012558;28;20422;-75
2023/04/22 04:22:35;;;;;;;2.67;1.67;;;7.70;99.90;;;;;;4984975;28;20184;-76
2023/04/22 04:25:01;;;;;;;3.67;1.70;;;7.70;99.90;;;;;;4976515;28;20454;-76
2023/04/22 04:27:26;;;;;;;13.90;3.93;;;7.70;99.90;;;;;;4993756;28;20208;-76
2023/04/22 04:29:54;;;;;;;64.20;22.10;;;7.70;99.90;;;;;;4991357;28;20180;-76
2023/04/22 04:32:21;;;;;;;81.33;23.50;;;7.70;99.90;;;;;;4982646;28;20275;-76
2023/04/22 04:34:46;;;;;;;59.80;21.67;;;7.70;99.90;;;;;;5008996;28;20500;-76
2023/04/22 04:37:12;;;;;;;55.73;20.97;;;7.70;99.90;;;;;;5001519;28;20477;-76
2023/04/22 04:39:38;;;;;;;30.43;11.17;;;7.70;99.90;;;;;;5006394;28;20187;-76
2023/04/22 04:42:03;;;;;;;24.90;8.80;;;7.70;99.90;;;;;;5002302;28;20523;-76
2023/04/22 04:44:32;;;;;;;16.80;6.90;;;7.70;99.90;;;;;;4997189;28;20574;-76
2023/04/22 04:46:58;;;;;;;16.63;6.23;;;7.80;99.90;;;;;;4993337;28;20234;-76
2023/04/22 04:49:24;;;;;;;17.27;7.30;;;7.80;99.90;;;;;;4993137;28;20780;-76
2023/04/22 04:51:49;;;;;;;26.23;9.03;;;7.80;99.90;;;;;;4982902;28;20204;-76
2023/04/22 04:54:15;;;;;;;31.23;9.23;;;7.80;99.90;;;;;;4986280;28;20208;-76
2023/04/22 04:56:41;;;;;;;23.63;8.60;;;7.80;99.90;;;;;;4992343;28;20187;-76
2023/04/22 04:59:07;;;;;;;26.10;8.27;;;7.90;99.90;;;;;;4998601;28;20183;-76
2023/04/22 05:01:32;;;;;;;17.93;6.80;;;7.90;99.90;;;;;;4992814;28;20648;-76
2023/04/22 05:03:58;;;;;;;10.93;4.73;;;7.90;99.90;;;;;;4992201;28;20226;-77
2023/04/22 05:06:23;;;;;;;12.67;4.93;;;7.90;99.90;;;;;;5002836;28;20194;-77
2023/04/22 05:08:49;;;;;;;8.33;3.47;;;7.90;99.90;;;;;;4995382;28;20222;-77
2023/04/22 05:11:15;;;;;;;15.10;6.03;;;8.00;99.90;;;;;;5003185;28;20608;-77
2023/04/22 05:13:40;;;;;;;18.60;6.83;;;8.00;99.90;;;;;;5011377;28;20221;-76
2023/04/22 05:16:06;;;;;;;8.73;4.57;;;8.10;99.90;;;;;;5011914;28;20289;-75
2023/04/22 05:18:31;;;;;;;12.60;4.23;;;8.00;99.90;;;;;;4993710;28;20239;-76
2023/04/22 05:20:58;;;;;;;7.70;3.77;;;8.10;99.90;;;;;;4982241;28;20647;-76
2023/04/22 05:23:24;;;;;;;6.70;3.73;;;8.10;99.90;;;;;;4981355;28;20188;-77
2023/04/22 05:25:50;;;;;;;6.77;3.43;;;8.10;99.90;;;;;;4993432;28;20490;-76
2023/04/22 05:28:15;;;;;;;17.80;3.70;;;8.20;99.90;;;;;;4975645;28;20430;-76
2023/04/22 05:30:41;;;;;;;7.63;3.00;;;8.20;99.90;;;;;;5001340;28;21046;-76
2023/04/22 05:33:10;;;;;;;10.53;2.90;;;8.30;99.90;;;;;;5010926;28;20276;-76
2023/04/22 05:35:35;;;;;;;10.33;3.93;;;8.50;99.90;;;;;;5002559;28;20618;-76
2023/04/22 05:38:01;;;;;;;6.20;3.20;;;8.70;99.90;;;;;;5002208;28;20438;-76
2023/04/22 05:40:27;;;;;;;5.60;3.00;;;8.80;99.90;;;;;;4984683;28;20188;-76
2023/04/22 05:42:53;;;;;;;11.83;4.00;;;9.00;99.90;;;;;;4981253;28;20473;-76
2023/04/22 05:45:19;;;;;;;3.93;2.40;;;9.10;99.90;;;;;;5002867;28;20287;-76
2023/04/22 05:47:44;;;;;;;4.53;2.27;;;9.30;99.90;;;;;;5007290;28;20195;-76
2023/04/22 05:50:10;;;;;;;7.63;3.10;;;9.40;99.90;;;;;;5011772;28;20270;-76
2023/04/22 05:52:36;;;;;;;4.00;2.17;;;9.60;99.90;;;;;;4998269;28;20298;-76
2023/04/22 05:55:01;;;;;;;15.50;6.93;;;9.80;99.90;;;;;;5011788;28;20183;-76
2023/04/22 05:57:27;;;;;;;8.20;3.87;;;9.80;99.90;;;;;;5009133;28;20195;-76
2023/04/22 05:59:52;;;;;;;3.80;2.50;;;9.90;99.90;;;;;;4992133;28;20179;-76
2023/04/22 06:02:18;;;;;;;3.97;2.30;;;10.00;99.90;;;;;;5004651;28;20260;-76
2023/04/22 06:04:44;;;;;;;4.33;2.43;;;10.10;99.90;;;;;;5000786;28;20193;-76
2023/04/22 06:07:09;;;;;;;8.03;2.10;;;10.20;99.90;;;;;;5000562;28;20298;-76
2023/04/22 06:09:35;;;;;;;2.93;1.93;;;10.20;99.90;;;;;;4988048;28;20267;-76
2023/04/22 06:12:01;;;;;;;3.63;2.20;;;10.40;99.90;;;;;;4990201;28;20187;-76
2023/04/22 06:14:26;;;;;;;3.30;1.27;;;10.40;99.90;;;;;;4995065;28;20207;-76
2023/04/22 06:16:52;;;;;;;5.13;2.47;;;10.50;99.90;;;;;;4997416;28;20184;-77
2023/04/22 06:19:18;;;;;;;7.40;2.13;;;10.50;99.90;;;;;;4995863;28;20183;-76
2023/04/22 06:21:44;;;;;;;4.20;1.73;;;10.60;99.90;;;;;;4993929;28;20438;-76
2023/04/22 06:24:10;;;;;;;4.47;1.97;;;10.70;99.90;;;;;;5006191;28;20187;-76
2023/04/22 06:26:36;;;;;;;4.27;2.17;;;10.80;99.90;;;;;;5010742;28;20651;-76
2023/04/22 06:29:04;;;;;;;3.87;2.20;;;10.80;99.90;;;;;;5005819;28;20199;-76
2023/04/22 06:31:33;;;;;;;3.37;1.63;;;11.00;99.90;;;;;;5010472;28;20476;-76
2023/04/22 06:33:58;;;;;;;4.07;2.07;;;11.00;99.90;;;;;;5007943;28;20473;-76
2023/04/22 06:36:25;;;;;;;5.33;2.63;;;11.20;99.90;;;;;;4998722;28;20424;-76
2023/04/22 06:38:50;;;;;;;5.10;2.60;;;11.10;99.90;;;;;;4995026;28;20186;-76
2023/04/22 06:41:16;;;;;;;6.60;2.13;;;11.10;99.90;;;;;;4992454;28;20900;-76
2023/04/22 06:43:42;;;;;;;4.77;2.60;;;11.20;99.90;;;;;;4984151;28;20200;-76
2023/04/22 06:46:08;;;;;;;3.40;2.13;;;11.20;99.90;;;;;;4996490;28;20198;-76
2023/04/22 06:48:34;;;;;;;14.83;3.17;;;11.30;99.90;;;;;;4985594;28;20242;-76
2023/04/22 06:51:00;;;;;;;3.70;1.80;;;11.30;99.90;;;;;;4991169;28;20427;-76
2023/04/22 06:53:27;;;;;;;9.60;2.57;;;11.40;99.90;;;;;;4994500;28;20675;-76
2023/04/22 06:55:53;;;;;;;3.63;2.20;;;11.50;99.90;;;;;;4984698;28;20430;-76
2023/04/22 06:58:19;;;;;;;5.93;2.33;;;11.60;99.90;;;;;;5014451;28;20421;-76
2023/04/22 07:00:45;;;;;;;4.17;1.90;;;11.70;99.90;;;;;;5001791;28;20505;-76
2023/04/22 07:03:11;;;;;;;4.33;2.00;;;11.70;99.90;;;;;;5014510;28;20888;-76
2023/04/22 07:05:36;;;;;;;4.20;1.80;;;11.90;99.90;;;;;;4996350;28;20193;-77
2023/04/22 07:08:02;;;;;;;2.60;1.60;;;12.00;99.90;;;;;;4994489;28;20188;-76
2023/04/22 07:10:28;;;;;;;3.87;2.13;;;12.10;99.90;;;;;;5002509;28;20191;-77
2023/04/22 07:12:53;;;;;;;4.10;2.20;;;12.20;99.90;;;;;;5015359;28;20241;-76
2023/04/22 07:15:19;;;;;;;3.63;1.83;;;12.30;99.90;;;;;;4999000;28;20206;-76
2023/04/22 07:17:45;;;;;;;3.47;2.17;;;12.40;99.90;;;;;;4995336;28;20191;-76
2023/04/22 07:20:10;;;;;;;3.23;1.50;;;12.40;99.90;;;;;;4994257;28;20192;-76
2023/04/22 07:22:36;;;;;;;2.97;1.80;;;12.50;99.90;;;;;;4994387;28;20190;-76
2023/04/22 07:25:02;;;;;;;3.33;2.40;;;12.50;99.90;;;;;;4998917;28;20230;-76
2023/04/22 07:27:28;;;;;;;2.33;1.40;;;12.60;99.90;;;;;;5001429;28;20271;-76
2023/04/22 07:29:54;;;;;;;4.27;1.83;;;12.70;99.90;;;;;;4992118;28;20518;-76
2023/04/22 07:32:20;;;;;;;4.43;2.43;;;12.70;99.90;;;;;;4993117;28;20187;-76
2023/04/22 07:34:45;;;;;;;2.70;1.60;;;12.80;99.90;;;;;;5011024;28;20242;-76
2023/04/22 07:37:11;;;;;;;3.83;1.63;;;13.10;99.90;;;;;;5003550;28;20187;-76
2023/04/22 07:39:36;;;;;;;2.50;1.50;;;13.20;99.90;;;;;;4997975;28;20192;-76
2023/04/22 07:42:02;;;;;;;4.13;1.77;;;13.30;99.90;;;;;;4989920;28;20625;-76
2023/04/22 07:44:28;;;;;;;2.60;1.33;;;13.50;99.90;;;;;;4994208;28;20199;-76
2023/04/22 07:46:54;;;;;;;6.97;1.30;;;13.60;99.90;;;;;;4995825;28;20191;-76
2023/04/22 07:49:20;;;;;;;2.50;1.50;;;13.60;99.90;;;;;;5000811;28;20762;-76
2023/04/22 07:51:45;;;;;;;3.40;1.80;;;13.60;99.90;;;;;;4999113;28;20426;-75
2023/04/22 07:54:11;;;;;;;3.77;1.53;;;13.70;99.90;;;;;;5006212;28;20243;-75
2023/04/22 07:56:37;;;;;;;3.93;1.80;;;13.80;99.90;;;;;;5012710;28;20179;-75
2023/04/22 07:59:02;;;;;;;3.50;1.50;;;13.90;99.90;;;;;;5021751;28;20612;-76
2023/04/22 08:01:28;;;;;;;10.03;1.80;;;14.20;99.90;;;;;;4995013;28;20181;-76
2023/04/22 08:03:54;;;;;;;2.17;1.07;;;14.50;99.90;;;;;;5014592;28;20617;-76
2023/04/22 08:06:19;;;;;;;5.30;1.17;;;14.60;99.90;;;;;;5007346;28;20670;-76
2023/04/22 08:08:45;;;;;;;2.13;1.10;;;14.70;99.90;;;;;;4999282;28;20176;-76
2023/04/22 08:11:11;;;;;;;2.47;1.27;;;14.80;99.90;;;;;;5006174;28;20180;-76
2023/04/22 08:13:36;;;;;;;5.20;1.90;;;14.80;99.40;;;;;;5009538;28;20214;-75
2023/04/22 08:16:02;;;;;;;2.70;1.20;;;15.10;99.30;;;;;;5013897;28;20183;-75
2023/04/22 08:18:28;;;;;;;3.73;1.40;;;15.30;98.30;;;;;;4998237;28;20207;-76
2023/04/22 08:20:54;;;;;;;4.40;2.10;;;15.70;98.70;;;;;;5002664;28;20183;-76
2023/04/22 08:23:20;;;;;;;3.10;1.50;;;16.40;97.50;;;;;;4984029;28;20416;-76
2023/04/22 08:25:46;;;;;;;2.20;1.10;;;16.90;96.20;;;;;;4984105;28;20515;-76
2023/04/22 08:28:12;;;;;;;3.00;1.57;;;17.40;94.50;;;;;;4991696;28;20180;-76
2023/04/22 08:30:38;;;;;;;2.40;1.20;;;17.90;94.00;;;;;;5012427;28;20436;-76
2023/04/22 08:33:03;;;;;;;5.73;1.47;;;18.50;91.90;;;;;;4999002;28;20666;-76
2023/04/22 08:35:29;;;;;;;2.70;1.53;;;18.70;91.30;;;;;;5003615;28;20262;-77
2023/04/22 08:37:55;;;;;;;2.13;1.23;;;19.30;91.10;;;;;;5008758;28;20801;-76
2023/04/22 08:40:21;;;;;;;2.77;1.43;;;20.30;88.40;;;;;;5010787;28;20822;-76
2023/04/22 08:42:47;;;;;;;2.80;1.23;;;20.50;87.90;;;;;;4999624;28;20179;-76
2023/04/22 08:45:13;;;;;;;5.10;1.23;;;20.80;86.30;;;;;;4994438;28;20206;-76
2023/04/22 08:47:40;;;;;;;2.00;1.00;;;21.10;83.80;;;;;;4995791;28;20418;-77
2023/04/22 08:50:08;;;;;;;2.97;1.40;;;21.30;84.20;;;;;;5000038;28;20418;-75
2023/04/22 08:52:34;;;;;;;2.10;1.20;;;21.60;83.70;;;;;;4997017;28;20187;-75
2023/04/22 08:54:59;;;;;;;3.40;1.40;;;21.80;80.00;;;;;;5012163;28;20223;-75
2023/04/22 08:57:25;;;;;;;2.40;0.80;;;21.90;81.20;;;;;;5011841;28;20191;-75
2023/04/22 08:59:54;;;;;;;2.03;0.88;;;22.20;77.60;;;;;;5011693;28;20234;-75
2023/04/22 09:02:20;;;;;;;1.75;0.85;;;22.40;75.90;;;;;;4995061;28;20246;-75
2023/04/22 09:04:49;;;;;;;1.50;0.63;;;22.60;75.90;;;;;;5001671;28;20213;-75
2023/04/22 09:07:21;;;;;;;2.60;0.90;;;22.50;75.20;;;;;;5003080;28;20185;-75
2023/04/22 09:09:47;;;;;;;1.92;0.90;;;22.40;70.70;;;;;;5005182;28;20191;-75
2023/04/22 09:12:13;;;;;;;2.73;1.13;;;22.10;73.20;;;;;;4994849;28;20174;-75
2023/04/22 09:14:38;;;;;;;1.87;0.80;;;21.90;74.20;;;;;;5001007;28;20203;-75
2023/04/22 09:17:04;;;;;;;3.03;1.10;;;20.90;73.40;;;;;;5004935;28;20275;-75
2023/04/22 09:19:29;;;;;;;8.30;1.00;;;20.40;75.60;;;;;;4991876;28;20187;-74
2023/04/22 09:21:58;;;;;;;2.30;1.07;;;20.10;76.10;;;;;;4998010;28;20178;-76
2023/04/22 09:24:24;;;;;;;1.43;0.70;;;20.30;79.30;;;;;;5013636;28;20221;-75
2023/04/22 09:26:50;;;;;;;3.93;0.90;;;20.10;74.20;;;;;;5013404;28;20453;-75
2023/04/22 09:29:16;;;;;;;1.50;0.90;;;20.20;73.90;;;;;;5013189;28;20183;-75
2023/04/22 09:31:46;;;;;;;2.03;0.90;;;20.40;75.20;;;;;;5011283;28;20179;-75
2023/04/22 09:34:12;;;;;;;1.80;0.90;;;20.60;74.10;;;;;;4989509;28;20465;-75
2023/04/22 09:36:38;;;;;;;1.80;0.93;;;20.90;73.10;;;;;;5006613;28;20497;-75
2023/04/22 09:39:08;;;;;;;1.60;0.80;;;21.20;73.80;;;;;;5012244;28;20586;-75
2023/04/22 09:41:34;;;;;;;3.13;0.90;;;21.40;71.80;;;;;;5011696;28;20182;-76
2023/04/22 09:44:01;;;;;;;3.73;1.33;;;21.60;71.00;;;;;;5001431;28;21116;-76
2023/04/22 09:46:29;;;;;;;4.87;2.40;;;21.90;70.20;;;;;;4996083;28;20607;-76
2023/04/22 09:48:57;;;;;;;2.17;1.07;;;21.80;66.70;;;;;;5008588;28;20190;-76
2023/04/22 09:51:23;;;;;;;2.13;0.90;;;22.10;66.60;;;;;;4996160;28;20203;-76
2023/04/22 09:53:59;;;;;;;1.40;0.60;;;22.10;66.50;;;;;;5007119;28;20244;-76
2023/04/22 09:56:46;;;;;;;2.10;0.97;;;21.80;70.90;;;;;;5002043;28;20669;-76
2023/04/22 09:59:13;;;;;;;2.10;1.10;;;21.60;64.70;;;;;;4992670;28;20214;-76
2023/04/22 10:01:40;;;;;;;4.63;1.00;;;21.60;69.30;;;;;;5004279;28;20541;-76
2023/04/22 10:04:09;;;;;;;2.43;0.87;;;21.50;66.10;;;;;;5013670;28;20182;-76
2023/04/22 10:06:36;;;;;;;9.40;1.30;;;21.40;68.30;;;;;;5007956;28;20430;-76
2023/04/22 10:09:03;;;;;;;2.17;0.80;;;21.20;66.20;;;;;;5001696;28;20422;-76
2023/04/22 10:11:30;;;;;;;2.17;0.60;;;21.30;66.90;;;;;;4993152;28;20421;-76
2023/04/22 10:13:57;;;;;;;2.37;0.90;;;21.30;61.30;;;;;;4996990;28;20470;-76
2023/04/22 10:16:23;;;;;;;1.80;0.80;;;21.40;59.80;;;;;;4995509;28;20506;-76
2023/04/22 10:18:53;;;;;;;1.70;0.70;;;21.40;62.10;;;;;;5002206;28;20425;-76
2023/04/22 10:21:20;;;;;;;1.70;0.60;;;21.30;59.60;;;;;;5014277;28;20414;-76
2023/04/22 10:23:47;;;;;;;1.50;0.70;;;21.30;58.50;;;;;;5013626;28;20771;-76
2023/04/22 10:26:51;;;;;;;2.33;1.20;;;21.30;59.00;;;;;;5001453;28;20481;-75
2023/04/22 10:29:19;;;;;;;1.67;0.80;;;21.40;59.20;;;;;;4997560;28;20890;-76
2023/04/22 10:31:57;;;;;;;2.60;0.90;;;21.30;59.00;;;;;;5013567;28;20540;-76
2023/04/22 10:34:23;;;;;;;6.83;0.90;;;21.40;58.90;;;;;;5013395;28;20468;-76
2023/04/22 10:36:55;;;;;;;1.77;0.87;;;21.50;59.30;;;;;;5011739;28;20428;-76
2023/04/22 10:39:21;;;;;;;2.20;1.20;;;21.60;62.90;;;;;;5013096;28;20421;-75
2023/04/22 10:41:55;;;;;;;1.60;0.80;;;21.50;58.40;;;;;;5013014;28;21545;-76
2023/04/22 10:44:21;;;;;;;2.33;0.93;;;21.50;65.30;;;;;;5002151;28;20508;-76
2023/04/22 10:46:51;;;;;;;3.87;1.17;;;21.40;60.60;;;;;;4993612;28;20936;-76
2023/04/22 10:49:24;;;;;;;1.87;1.07;;;21.40;60.60;;;;;;5004214;28;20423;-76
2023/04/22 10:51:52;;;;;;;2.00;0.90;;;21.40;62.30;;;;;;5012877;28;20410;-76
2023/04/22 10:54:35;;;;;;;4.73;0.97;;;21.40;63.10;;;;;;4989668;28;20511;-76
2023/04/22 10:57:07;;;;;;;4.10;1.60;;;21.60;60.90;;;;;;4994350;28;20427;-76
2023/04/22 10:59:54;;;;;;;2.87;0.90;;;21.50;62.80;;;;;;4996760;28;20418;-76
2023/04/22 11:02:21;;;;;;;4.60;1.40;;;21.70;60.50;;;;;;5000643;28;20460;-75
2023/04/22 11:04:47;;;;;;;2.40;1.17;;;21.70;60.60;;;;;;4995233;28;20553;-76
2023/04/22 11:07:19;;;;;;;1.67;0.80;;;21.80;62.50;;;;;;4997930;28;20434;-76
2023/04/22 11:10:05;;;;;;;2.00;0.83;;;21.70;64.70;;;;;;4993774;28;20922;-76
2023/04/22 11:12:34;;;;;;;1.53;0.77;;;21.60;59.50;;;;;;4956028;28;20527;-76
2023/04/22 11:15:09;;;;;;;3.60;1.10;;;21.40;60.00;;;;;;5012687;28;20552;-76
2023/04/22 11:17:41;;;;;;;1.70;0.77;;;21.30;61.00;;;;;;5001266;28;20425;-75
2023/04/22 11:20:08;;;;;;;1.50;0.70;;;21.40;61.50;;;;;;5010001;28;20512;-76
2023/04/22 11:22:35;;;;;;;2.23;0.80;;;21.50;61.40;;;;;;4990964;28;20481;-76
2023/04/22 11:25:03;;;;;;;3.10;0.90;;;21.80;64.20;;;;;;4999882;28;20794;-76
2023/04/22 11:27:29;;;;;;;2.37;1.00;;;22.00;63.20;;;;;;4993006;28;20437;-76
2023/04/22 11:30:09;;;;;;;3.00;0.80;;;22.10;65.80;;;;;;4993792;28;20422;-76
2023/04/22 11:32:37;;;;;;;1.60;0.80;;;22.20;64.90;;;;;;4996712;28;20495;-76
2023/04/22 11:35:08;;;;;;;3.90;1.50;;;22.20;63.30;;;;;;5006783;28;20502;-76
2023/04/22 11:37:44;;;;;;;1.50;0.60;;;22.40;64.70;;;;;;5007788;28;20421;-76
2023/04/22 11:40:12;;;;;;;2.83;1.00;;;22.50;61.20;;;;;;4986105;28;20426;-76
2023/04/22 11:42:38;;;;;;;3.73;1.53;;;22.40;60.80;;;;;;5001339;28;20430;-76
2023/04/22 11:45:05;;;;;;;4.20;0.90;;;22.20;64.10;;;;;;4992850;28;20750;-76
2023/04/22 11:47:33;;;;;;;4.50;1.17;;;22.30;64.80;;;;;;4994013;28;20202;-76
2023/04/22 11:50:03;;;;;;;1.87;1.07;;;22.20;65.50;;;;;;4992817;28;20727;-75
2023/04/22 11:52:55;;;;;;;2.80;1.00;;;22.50;64.50;;;;;;4997300;28;20426;-77
2023/04/22 11:55:30;;;;;;;1.47;0.77;;;22.60;63.70;;;;;;5008678;28;20436;-76
2023/04/22 11:58:06;;;;;;;2.57;1.20;;;22.60;64.50;;;;;;5012839;28;20401;-76
2023/04/22 12:00:36;;;;;;;1.50;0.70;;;22.50;65.10;;;;;;5009593;28;20411;-77
2023/04/22 12:03:03;;;;;;;2.50;1.10;;;22.60;67.60;;;;;;5011833;28;20432;-77
2023/04/22 12:05:53;;;;;;;1.70;0.87;;;22.50;64.80;;;;;;5011830;28;20498;-76
2023/04/22 12:08:18;;;;;;;1.67;0.70;;;22.50;62.60;;;;;;4996568;28;20413;-77
2023/04/22 12:10:55;;;;;;;2.10;0.90;;;22.40;65.00;;;;;;4994868;28;20426;-77
2023/04/22 12:13:24;;;;;;;2.50;1.23;;;22.40;63.00;;;;;;4991579;28;20249;-77
2023/04/22 12:15:56;;;;;;;1.50;0.70;;;22.70;70.60;;;;;;5004526;28;20424;-77
2023/04/22 12:18:33;;;;;;;2.37;1.03;;;23.30;60.50;;;;;;5005900;28;20417;-77
2023/04/22 12:21:09;;;;;;;3.00;1.30;;;23.20;59.40;;;;;;4991498;28;20427;-77
2023/04/22 12:23:45;;;;;;;1.80;0.90;;;23.00;59.60;;;;;;5012042;28;20436;-77
2023/04/22 12:26:12;;;;;;;2.10;1.00;;;23.00;59.40;;;;;;5012786;28;20441;-77
2023/04/22 12:28:38;;;;;;;3.07;1.40;;;23.30;60.90;;;;;;4999371;28;20416;-77
2023/04/22 12:31:05;;;;;;;2.40;0.97;;;23.20;59.90;;;;;;5012606;28;20436;-77
2023/04/22 12:33:31;;;;;;;2.47;1.00;;;23.10;58.20;;;;;;5011593;28;20515;-77
2023/04/22 12:35:57;;;;;;;2.03;0.90;;;23.10;59.90;;;;;;5010692;28;20449;-77
2023/04/22 12:38:23;;;;;;;2.73;1.00;;;22.80;60.20;;;;;;5011114;28;20293;-77
2023/04/22 12:40:50;;;;;;;2.07;1.07;;;22.60;59.70;;;;;;5012226;28;20877;-77
2023/04/22 12:43:16;;;;;;;2.33;1.43;;;22.70;60.60;;;;;;5009212;28;20179;-77
2023/04/22 12:45:41;;;;;;;2.17;0.83;;;22.80;59.10;;;;;;4992903;28;20428;-77
2023/04/22 12:48:07;;;;;;;6.03;1.03;;;22.70;58.80;;;;;;4998039;28;20425;-77
2023/04/22 12:50:33;;;;;;;1.77;0.90;;;22.40;59.70;;;;;;4995517;28;20601;-77